Time;durP1;ratioP1;P1;durP2;ratioP2;P2;SDS_P1;SDS_P2;PMS_P1;PMS_P2;Temp;Humidity;BMP_temperature;BMP_pressure;BME280_temperature;BME280_humidity;BME280_pressure;Samples;Min_cycle;Max_cycle;Signal;HPM_P1;HPM_P2
2023/09/30 00:00:36;;;;;;;11.82;5.35;;;;;;;12.27;91.96;93498.94;5117154;27;20060;-75
2023/09/30 00:03:03;;;;;;;7.40;5.03;;;;;;;12.39;91.75;93511.13;5122191;27;20043;-75
2023/09/30 00:05:31;;;;;;;11.43;5.97;;;;;;;12.36;91.96;93514.13;5125859;27;20415;-75
2023/09/30 00:07:58;;;;;;;7.95;5.10;;;;;;;12.19;93.38;93512.09;5124043;27;20058;-75
2023/09/30 00:10:25;;;;;;;11.10;5.85;;;;;;;12.15;94.00;93513.50;5124969;27;20039;-76
2023/09/30 00:12:52;;;;;;;11.57;6.50;;;;;;;12.13;93.81;93500.06;5123079;27;20079;-75
2023/09/30 00:15:19;;;;;;;9.88;5.93;;;;;;;12.11;93.86;93507.22;5111476;27;20043;-76
2023/09/30 00:17:46;;;;;;;10.23;6.30;;;;;;;12.19;93.75;93509.53;5111614;27;20054;-75
2023/09/30 00:20:14;;;;;;;9.40;6.03;;;;;;;12.09;95.43;93509.97;5112097;27;20043;-74
2023/09/30 00:22:42;;;;;;;10.90;6.13;;;;;;;12.01;94.94;93495.59;5115053;27;20142;-75
2023/09/30 00:25:09;;;;;;;11.77;6.45;;;;;;;12.07;94.45;93499.13;5113388;27;20708;-75
2023/09/30 00:27:37;;;;;;;8.85;5.60;;;;;;;12.00;95.25;93494.00;5110984;27;20058;-74
2023/09/30 00:30:06;;;;;;;10.73;6.20;;;;;;;12.12;94.86;93495.91;5111498;27;20054;-73
2023/09/30 00:32:33;;;;;;;8.70;6.07;;;;;;;12.15;94.30;93495.50;5112619;27;20175;-76
2023/09/30 00:35:01;;;;;;;9.77;6.20;;;;;;;12.22;94.31;93501.34;5111253;27;20051;-75
2023/09/30 00:37:28;;;;;;;13.68;6.28;;;;;;;12.23;93.83;93502.16;5111307;27;20052;-75
2023/09/30 00:39:57;;;;;;;10.15;6.57;;;;;;;12.22;93.33;93496.22;5116201;27;20043;-75
2023/09/30 00:42:24;;;;;;;9.77;6.38;;;;;;;12.23;93.21;93502.16;5125361;27;20058;-75
2023/09/30 00:44:51;;;;;;;8.77;6.10;;;;;;;12.13;93.24;93503.41;5122275;27;20084;-76
2023/09/30 00:47:20;;;;;;;10.77;6.20;;;;;;;12.13;93.65;93498.28;5126303;27;20069;-76
2023/09/30 00:49:46;;;;;;;9.35;5.88;;;;;;;12.10;93.79;93503.06;5123661;27;20046;-75
2023/09/30 00:52:13;;;;;;;11.35;6.30;;;;;;;12.09;93.71;93498.91;5125471;27;20043;-75
2023/09/30 00:54:40;;;;;;;10.30;6.50;;;;;;;12.06;94.13;93501.91;5124573;27;20039;-76
2023/09/30 00:57:09;;;;;;;9.98;6.78;;;;;;;12.03;94.48;93500.50;5126373;27;20043;-76
2023/09/30 00:59:36;;;;;;;9.55;5.60;;;;;;;12.04;93.89;93507.28;5124662;27;20039;-75
2023/09/30 01:02:05;;;;;;;10.38;6.20;;;;;;;11.98;94.35;93508.06;5120774;27;20054;-75
2023/09/30 01:04:33;;;;;;;10.40;6.05;;;;;;;11.91;94.00;93500.41;5124797;27;20040;-75
2023/09/30 01:06:59;;;;;;;12.77;6.38;;;;;;;11.95;94.23;93509.28;5125525;27;20050;-75
2023/09/30 01:09:27;;;;;;;10.30;5.30;;;;;;;11.94;94.41;93496.63;5123979;27;20046;-75
2023/09/30 01:11:54;;;;;;;8.05;5.65;;;;;;;11.65;94.88;93476.44;5124435;27;20043;-75
2023/09/30 01:14:30;;;;;;;11.98;6.43;;;;;;;11.86;94.63;93502.84;5125070;27;20101;-75
2023/09/30 01:16:57;;;;;;;9.52;5.70;;;;;;;11.84;94.15;93490.16;5124683;27;20047;-75
2023/09/30 01:19:25;;;;;;;11.73;6.13;;;;;;;11.77;95.17;93497.94;5124077;27;20503;-75
2023/09/30 01:21:56;;;;;;;9.98;6.25;;;;;;;11.80;95.13;93495.94;5126412;27;20035;-75
2023/09/30 01:24:23;;;;;;;11.52;6.22;;;;;;;11.75;94.97;93486.28;5124221;27;20043;-75
2023/09/30 01:26:49;;;;;;;9.80;6.22;;;;;;;11.73;95.65;93496.00;5124828;27;20045;-75
2023/09/30 01:29:17;;;;;;;13.15;6.13;;;;;;;11.76;94.89;93498.94;5123876;27;20130;-75
2023/09/30 01:31:47;;;;;;;13.95;6.55;;;;;;;11.69;95.06;93489.69;5124691;27;20051;-75
2023/09/30 01:34:15;;;;;;;8.55;6.30;;;;;;;11.72;95.13;93497.00;5121669;27;20053;-75
2023/09/30 01:36:42;;;;;;;8.75;5.97;;;;;;;11.62;95.69;93502.63;5113148;27;20058;-76
2023/09/30 01:39:10;;;;;;;12.38;6.65;;;;;;;11.60;95.80;93500.25;5108511;27;20040;-76
2023/09/30 01:41:37;;;;;;;12.65;6.55;;;;;;;11.58;95.25;93501.44;5108809;27;20044;-76
2023/09/30 01:44:04;;;;;;;12.23;6.53;;;;;;;11.49;95.69;93499.09;5107018;27;20048;-75
2023/09/30 01:46:31;;;;;;;13.15;6.63;;;;;;;11.39;95.95;93485.16;5109998;27;20039;-75
2023/09/30 01:48:58;;;;;;;10.50;6.68;;;;;;;11.50;95.70;93510.19;5107844;27;20044;-75
2023/09/30 01:51:25;;;;;;;12.05;7.13;;;;;;;11.53;95.71;93503.84;5103587;27;20050;-75
2023/09/30 01:53:52;;;;;;;15.13;7.05;;;;;;;11.45;96.31;93500.53;5106042;27;20043;-75
2023/09/30 01:56:20;;;;;;;12.82;6.53;;;;;;;11.41;96.83;93499.38;5109749;27;20495;-75
2023/09/30 01:58:47;;;;;;;10.45;6.82;;;;;;;11.39;96.22;93505.72;5105288;27;20043;-75
2023/09/30 02:01:14;;;;;;;12.57;6.60;;;;;;;11.37;96.49;93500.78;5109002;27;20040;-75
2023/09/30 02:03:41;;;;;;;12.18;6.88;;;;;;;11.44;96.40;93498.16;5105853;27;20050;-75
2023/09/30 02:06:08;;;;;;;13.25;7.63;;;;;;;11.35;96.42;93490.69;5112480;27;20506;-75
2023/09/30 02:08:36;;;;;;;11.38;6.55;;;;;;;11.34;96.96;93494.25;5110804;27;20090;-75
2023/09/30 02:11:05;;;;;;;10.52;6.47;;;;;;;11.12;97.00;93459.56;5107347;27;20174;-75
2023/09/30 02:13:35;;;;;;;10.32;6.60;;;;;;;11.13;97.32;93479.16;5106444;27;20126;-75
2023/09/30 02:16:02;;;;;;;14.77;6.78;;;;;;;11.26;97.28;93489.38;5107308;27;20040;-75
2023/09/30 02:18:32;;;;;;;13.80;7.13;;;;;;;11.29;97.34;93495.88;5110516;27;20440;-75
2023/09/30 02:20:59;;;;;;;11.32;8.13;;;;;;;11.19;97.80;93497.13;5105237;27;20131;-75
2023/09/30 02:23:26;;;;;;;13.95;7.78;;;;;;;11.20;97.38;93498.69;5105674;27;20384;-75
2023/09/30 02:25:53;;;;;;;12.50;6.80;;;;;;;11.19;96.98;93499.69;5109765;27;20043;-75
2023/09/30 02:28:20;;;;;;;11.80;7.38;;;;;;;11.07;97.57;93491.06;5106861;27;20412;-75
2023/09/30 02:30:48;;;;;;;13.57;7.10;;;;;;;11.04;98.46;93487.13;5106289;27;20047;-75
2023/09/30 02:33:15;;;;;;;15.65;7.57;;;;;;;11.03;97.83;93497.59;5108844;27;20052;-75
2023/09/30 02:35:45;;;;;;;22.27;9.85;;;;;;;10.99;98.66;93486.13;5107561;27;20062;-76
2023/09/30 02:38:12;;;;;;;13.40;8.35;;;;;;;10.96;98.77;93489.91;5108720;27;20040;-75
2023/09/30 02:40:40;;;;;;;11.00;7.00;;;;;;;10.98;98.84;93492.28;5105454;27;20040;-75
2023/09/30 02:43:07;;;;;;;11.90;7.25;;;;;;;10.98;98.58;93492.28;5104326;27;20043;-75
2023/09/30 02:45:33;;;;;;;15.02;7.72;;;;;;;11.01;98.77;93489.31;5108917;27;20048;-75
2023/09/30 02:48:02;;;;;;;13.50;7.07;;;;;;;10.82;99.27;93477.13;5106845;27;21216;-75
2023/09/30 02:50:28;;;;;;;17.75;8.50;;;;;;;10.80;100.00;93481.66;5107161;27;20048;-75
2023/09/30 02:52:55;;;;;;;14.07;8.15;;;;;;;10.94;98.87;93487.53;5106517;27;20059;-75
2023/09/30 02:55:22;;;;;;;15.07;7.20;;;;;;;10.93;99.28;93490.31;5111802;27;20055;-75
2023/09/30 02:57:49;;;;;;;11.70;7.68;;;;;;;10.91;98.86;93497.44;5109384;27;20039;-74
2023/09/30 03:00:23;;;;;;;15.02;7.75;;;;;;;10.95;98.46;93485.75;5102271;27;20059;-75
2023/09/30 03:02:50;;;;;;;16.75;7.93;;;;;;;10.91;98.24;93487.94;5106796;27;20038;-75
2023/09/30 03:05:19;;;;;;;15.60;7.70;;;;;;;10.84;98.29;93494.91;5110498;27;20047;-75
2023/09/30 03:07:47;;;;;;;18.67;7.95;;;;;;;10.84;98.44;93492.34;5103691;27;20118;-74
2023/09/30 03:10:20;;;;;;;16.25;7.70;;;;;;;10.77;98.65;93489.00;5107179;27;20040;-75
2023/09/30 03:12:47;;;;;;;17.52;7.75;;;;;;;10.72;98.94;93499.09;5107019;27;20123;-75
2023/09/30 03:15:14;;;;;;;16.25;7.93;;;;;;;10.74;99.60;93504.81;5107472;27;20044;-75
2023/09/30 03:17:41;;;;;;;15.75;8.95;;;;;;;10.70;99.31;93496.75;5112193;27;20072;-75
2023/09/30 03:20:11;;;;;;;13.85;8.27;;;;;;;10.76;99.52;93495.13;5106156;27;20480;-75
2023/09/30 03:22:42;;;;;;;14.98;8.27;;;;;;;10.73;99.28;93492.97;5105461;27;20116;-75
2023/09/30 03:25:11;;;;;;;18.20;7.88;;;;;;;10.63;100.00;93488.25;5107023;27;20047;-74
2023/09/30 03:27:38;;;;;;;14.25;8.07;;;;;;;10.77;99.72;93494.13;5110126;28;20419;-73
2023/09/30 03:30:06;;;;;;;14.60;7.82;;;;;;;10.63;100.00;93493.38;5105526;28;20047;-74
2023/09/30 03:32:34;;;;;;;17.67;7.85;;;;;;;10.68;100.00;93504.66;5102001;27;20048;-74
2023/09/30 03:35:01;;;;;;;15.35;8.60;;;;;;;10.70;99.80;93496.75;5106188;27;20057;-74
2023/09/30 03:37:28;;;;;;;14.15;8.18;;;;;;;10.65;100.00;93499.91;5110070;27;20043;-74
2023/09/30 03:39:57;;;;;;;15.85;8.00;;;;;;;10.71;99.41;93500.09;5111481;27;20069;-75
2023/09/30 03:42:25;;;;;;;13.43;7.32;;;;;;;10.60;99.57;93486.88;5111780;27;20040;-74
2023/09/30 03:44:52;;;;;;;17.50;8.60;;;;;;;10.64;99.81;93490.63;5110976;27;20035;-75
2023/09/30 03:47:20;;;;;;;14.77;8.77;;;;;;;10.50;99.77;93476.22;5110825;27;20488;-75
2023/09/30 03:49:48;;;;;;;18.13;8.90;;;;;;;10.62;99.51;93487.47;5106417;27;20043;-75
2023/09/30 03:52:15;;;;;;;16.88;8.40;;;;;;;10.52;100.00;93485.31;5111665;27;20044;-75
2023/09/30 03:54:42;;;;;;;16.17;7.82;;;;;;;10.49;100.00;93490.88;5112095;27;20719;-74
2023/09/30 03:57:12;;;;;;;16.45;8.48;;;;;;;10.45;100.00;93470.94;5112066;27;20866;-74
2023/09/30 03:59:39;;;;;;;17.90;9.02;;;;;;;10.48;100.00;93491.06;5110053;27;20052;-74
2023/09/30 04:02:08;;;;;;;13.27;8.20;;;;;;;10.46;100.00;93488.69;5107207;27;20044;-74
2023/09/30 04:04:37;;;;;;;18.10;8.90;;;;;;;10.49;100.00;93483.16;5111896;27;20043;-74
2023/09/30 04:07:05;;;;;;;15.70;8.75;;;;;;;10.49;100.00;93482.34;5108036;27;20054;-75
2023/09/30 04:09:32;;;;;;;20.17;8.65;;;;;;;10.56;100.00;93486.50;5110066;27;20076;-74
2023/09/30 04:11:59;;;;;;;15.25;9.13;;;;;;;10.50;100.00;93486.50;5110007;27;20039;-74
2023/09/30 04:14:27;;;;;;;16.60;8.18;;;;;;;10.46;100.00;93477.66;5107437;27;20043;-74
2023/09/30 04:16:54;;;;;;;14.40;8.48;;;;;;;10.52;100.00;93482.75;5109996;27;20051;-74
2023/09/30 04:19:21;;;;;;;14.75;7.72;;;;;;;10.50;100.00;93489.06;5109128;27;20526;-74
2023/09/30 04:21:48;;;;;;;23.40;9.68;;;;;;;10.46;100.00;93493.06;5100777;27;20450;-75
2023/09/30 04:24:15;;;;;;;23.55;9.23;;;;;;;10.48;100.00;93491.06;5109649;27;20055;-74
2023/09/30 04:26:42;;;;;;;16.90;8.52;;;;;;;10.50;100.00;93484.72;5106079;27;20055;-74
2023/09/30 04:29:10;;;;;;;15.93;8.35;;;;;;;10.44;100.00;93493.25;5104218;27;20408;-74
2023/09/30 04:31:41;;;;;;;20.35;8.77;;;;;;;10.42;100.00;93495.22;5103519;27;20142;-75
2023/09/30 04:34:08;;;;;;;21.30;8.98;;;;;;;10.21;100.00;93466.22;5108968;27;20040;-75
2023/09/30 04:36:35;;;;;;;18.67;8.98;;;;;;;10.36;100.00;93489.09;5108702;27;20055;-75
2023/09/30 04:39:04;;;;;;;17.73;8.50;;;;;;;10.43;100.00;93502.72;5107389;27;20048;-75
2023/09/30 04:41:31;;;;;;;19.42;8.77;;;;;;;10.36;100.00;93486.50;5112897;27;20130;-75
2023/09/30 04:43:57;;;;;;;19.88;8.93;;;;;;;10.41;100.00;93503.88;5109216;27;20055;-74
2023/09/30 04:46:24;;;;;;;20.67;8.85;;;;;;;10.38;100.00;93504.28;5111216;27;20514;-74
2023/09/30 04:48:53;;;;;;;20.63;9.45;;;;;;;10.34;100.00;93490.28;5107709;27;20039;-74
2023/09/30 04:51:19;;;;;;;17.17;8.98;;;;;;;10.40;100.00;93508.25;5109797;27;20046;-74
2023/09/30 04:53:47;;;;;;;20.42;9.00;;;;;;;10.41;100.00;93499.53;5098928;27;20048;-75
2023/09/30 04:56:14;;;;;;;19.33;9.65;;;;;;;10.40;100.00;93505.66;5095131;27;20054;-75
2023/09/30 04:58:41;;;;;;;20.42;9.13;;;;;;;10.41;100.00;93496.19;5092951;27;20522;-76
2023/09/30 05:01:09;;;;;;;16.83;9.27;;;;;;;10.59;100.00;93505.84;5105647;27;20048;-75
2023/09/30 05:03:36;;;;;;;22.33;10.10;;;;;;;10.59;100.00;93516.13;5097263;27;20479;-74
2023/09/30 05:06:04;;;;;;;16.50;8.82;;;;;;;10.62;100.00;93513.16;5107079;27;20144;-73
2023/09/30 05:08:31;;;;;;;16.23;9.18;;;;;;;10.61;100.00;93510.78;5114292;27;20066;-73
2023/09/30 05:10:58;;;;;;;17.20;8.73;;;;;;;10.65;100.00;93525.59;5111035;27;20650;-73
2023/09/30 05:13:25;;;;;;;18.13;9.35;;;;;;;10.64;100.00;93511.16;5110399;27;20062;-74
2023/09/30 05:15:53;;;;;;;20.05;9.18;;;;;;;10.67;100.00;93531.34;5111434;27;20055;-73
2023/09/30 05:18:20;;;;;;;17.67;9.05;;;;;;;10.67;100.00;93526.19;5113819;27;20054;-73
2023/09/30 05:20:46;;;;;;;19.00;9.43;;;;;;;10.76;100.00;93518.25;5116123;27;20042;-74
2023/09/30 05:23:15;;;;;;;19.27;8.77;;;;;;;10.79;100.00;93520.44;5113709;27;20048;-75
2023/09/30 05:25:42;;;;;;;23.83;9.43;;;;;;;10.84;100.00;93520.59;5115466;27;20039;-74
2023/09/30 05:28:11;;;;;;;19.33;9.27;;;;;;;10.95;100.00;93522.53;5110855;27;20052;-74
2023/09/30 05:30:38;;;;;;;17.70;8.68;;;;;;;10.99;100.00;93527.25;5113099;27;20044;-74
2023/09/30 05:33:05;;;;;;;19.35;8.57;;;;;;;11.07;100.00;93524.47;5103350;27;20535;-75
2023/09/30 05:35:32;;;;;;;16.83;9.05;;;;;;;11.12;100.00;93518.72;5107902;27;20058;-75
2023/09/30 05:37:59;;;;;;;19.20;8.75;;;;;;;11.20;100.00;93519.25;5122033;27;20509;-75
2023/09/30 05:40:30;;;;;;;15.05;8.18;;;;;;;11.25;100.00;93520.44;5121712;27;20044;-75
2023/09/30 05:42:59;;;;;;;19.80;9.57;;;;;;;11.18;100.00;93508.41;5121469;27;20134;-74
2023/09/30 05:45:27;;;;;;;21.13;8.95;;;;;;;11.23;100.00;93497.50;5123844;27;20043;-74
2023/09/30 05:47:54;;;;;;;17.52;7.88;;;;;;;11.52;100.00;93531.34;5121050;27;20043;-74
2023/09/30 05:50:24;;;;;;;11.95;7.85;;;;;;;11.57;100.00;93531.53;5118780;27;20043;-74
2023/09/30 05:52:51;;;;;;;15.73;8.10;;;;;;;11.62;100.00;93534.25;5122749;27;20054;-74
2023/09/30 05:55:20;;;;;;;16.40;7.85;;;;;;;11.62;100.00;93531.69;5123845;27;20047;-74
2023/09/30 05:57:49;;;;;;;16.92;8.30;;;;;;;11.53;100.00;93521.84;5122299;27;20043;-73
2023/09/30 06:00:22;;;;;;;17.05;8.48;;;;;;;11.63;100.00;93506.75;5119010;27;20139;-74
2023/09/30 06:02:51;;;;;;;15.15;8.32;;;;;;;11.87;100.00;93532.72;5120911;27;20047;-74
2023/09/30 06:05:18;;;;;;;16.10;7.65;;;;;;;12.05;100.00;93538.94;5121429;27;20047;-74
2023/09/30 06:07:46;;;;;;;16.17;8.95;;;;;;;12.24;100.00;93540.59;5123682;27;20152;-74
2023/09/30 06:10:18;;;;;;;17.63;9.07;;;;;;;12.38;100.00;93535.31;5117725;27;20042;-74
2023/09/30 06:12:46;;;;;;;18.75;9.50;;;;;;;12.51;100.00;93537.75;5112786;27;20047;-74
2023/09/30 06:15:15;;;;;;;16.92;8.95;;;;;;;12.60;99.19;93545.22;5115287;27;20423;-74
2023/09/30 06:17:42;;;;;;;18.38;8.80;;;;;;;12.73;97.23;93546.88;5118186;27;20046;-74
2023/09/30 06:20:17;;;;;;;19.10;8.88;;;;;;;12.93;96.51;93546.66;5115831;27;20100;-75
2023/09/30 06:22:45;;;;;;;20.58;8.85;;;;;;;13.05;94.22;93546.72;5116188;27;20437;-74
2023/09/30 06:25:12;;;;;;;15.10;7.82;;;;;;;13.18;93.63;93549.13;5113196;27;20051;-74
2023/09/30 06:27:39;;;;;;;18.38;9.23;;;;;;;13.35;94.05;93551.91;5111575;27;20558;-74
2023/09/30 06:30:08;;;;;;;22.33;9.65;;;;;;;13.45;93.58;93553.97;5117870;27;20039;-74
2023/09/30 06:32:37;;;;;;;13.60;7.70;;;;;;;13.56;91.92;93559.44;5120162;27;20058;-74
2023/09/30 06:35:04;;;;;;;19.95;10.93;;;;;;;13.61;92.38;93544.06;5116788;27;20051;-74
2023/09/30 06:37:31;;;;;;;20.67;10.18;;;;;;;13.86;91.42;93562.00;5113445;27;20051;-74
2023/09/30 06:39:57;;;;;;;20.17;9.45;;;;;;;14.02;91.33;93559.75;5118231;27;20507;-74
2023/09/30 06:42:26;;;;;;;18.63;8.23;;;;;;;14.09;88.96;93557.88;5110632;27;20062;-74
2023/09/30 06:44:54;;;;;;;15.23;7.38;;;;;;;14.22;87.94;93564.63;5111151;27;20511;-74
2023/09/30 06:47:21;;;;;;;16.95;8.30;;;;;;;14.23;88.02;93563.63;5117595;27;20684;-75
2023/09/30 06:49:49;;;;;;;19.08;8.38;;;;;;;14.32;88.14;93558.09;5111777;27;20506;-75
2023/09/30 06:52:17;;;;;;;16.90;8.93;;;;;;;14.41;86.50;93561.94;5110405;27;20534;-75
2023/09/30 06:54:43;;;;;;;20.40;7.68;;;;;;;14.49;87.82;93563.41;5111003;27;20051;-75
2023/09/30 06:57:10;;;;;;;19.75;7.53;;;;;;;14.67;88.18;93573.63;5112962;27;20074;-75
2023/09/30 06:59:37;;;;;;;14.77;7.07;;;;;;;14.77;85.99;93569.72;5113026;27;20097;-75
2023/09/30 07:02:04;;;;;;;26.73;8.73;;;;;;;14.83;85.74;93576.56;5115412;27;20044;-75
2023/09/30 07:04:31;;;;;;;18.10;7.95;;;;;;;14.99;86.50;93579.47;5115518;27;20600;-75
2023/09/30 07:06:59;;;;;;;26.88;8.75;;;;;;;15.20;84.91;93572.91;5115044;27;20051;-75
2023/09/30 07:09:26;;;;;;;23.23;9.18;;;;;;;15.33;86.37;93569.28;5110744;27;20046;-75
2023/09/30 07:11:53;;;;;;;40.88;11.95;;;;;;;15.59;82.81;93574.91;5114085;27;20051;-75
2023/09/30 07:14:20;;;;;;;36.03;10.57;;;;;;;15.75;83.35;93568.22;5112310;27;20054;-75
2023/09/30 07:16:47;;;;;;;28.48;10.02;;;;;;;15.86;82.85;93559.59;5113571;27;20044;-76
2023/09/30 07:19:13;;;;;;;30.08;8.95;;;;;;;16.19;80.46;93565.06;5111077;27;20047;-75
2023/09/30 07:21:40;;;;;;;33.85;9.05;;;;;;;16.44;79.62;93566.47;5116566;27;20050;-76
2023/09/30 07:24:09;;;;;;;36.70;8.60;;;;;;;16.69;78.86;93565.25;5114140;28;20054;-75
2023/09/30 07:26:36;;;;;;;39.28;11.25;;;;;;;16.83;78.07;93563.91;5109324;27;20051;-76
2023/09/30 07:29:04;;;;;;;40.10;10.60;;;;;;;17.17;75.58;93578.59;5113981;27;20136;-75
2023/09/30 07:31:36;;;;;;;48.28;10.25;;;;;;;17.31;75.81;93573.06;5114222;28;20047;-75
2023/09/30 07:34:03;;;;;;;29.20;8.23;;;;;;;17.52;76.07;93571.47;5112143;28;20049;-75
2023/09/30 07:36:30;;;;;;;49.28;10.13;;;;;;;17.79;75.05;93575.09;5108912;28;20187;-75
2023/09/30 07:38:56;;;;;;;21.70;7.28;;;;;;;18.01;73.17;93573.22;5108429;28;20419;-75
2023/09/30 07:41:25;;;;;;;26.10;6.47;;;;;;;18.31;71.66;93576.34;5109398;28;20051;-75
2023/09/30 07:43:51;;;;;;;19.50;6.70;;;;;;;18.63;67.16;93577.34;5107875;28;20052;-75
2023/09/30 07:46:18;;;;;;;19.95;6.18;;;;;;;18.89;66.75;93577.50;5110110;27;20063;-75
2023/09/30 07:48:45;;;;;;;19.77;5.53;;;;;;;19.13;65.21;93582.31;5111528;28;20059;-75
2023/09/30 07:51:13;;;;;;;9.27;4.55;;;;;;;19.33;62.17;93584.22;5121735;27;20039;-76
2023/09/30 07:53:41;;;;;;;10.90;4.20;;;;;;;19.59;61.77;93584.31;5115926;27;20495;-76
2023/09/30 07:56:08;;;;;;;7.05;4.13;;;;;;;19.71;59.13;93590.06;5110634;27;20071;-76
2023/09/30 07:58:36;;;;;;;10.13;4.22;;;;;;;19.83;59.24;93581.22;5110348;27;20699;-76
2023/09/30 08:01:04;;;;;;;8.40;4.80;;;;;;;20.02;57.53;93584.94;5111008;28;20510;-76
2023/09/30 08:03:31;;;;;;;7.63;4.50;;;;;;;20.28;58.11;93579.72;5111307;27;20452;-76
2023/09/30 08:05:58;;;;;;;11.18;5.10;;;;;;;20.42;55.59;93581.81;5113845;27;20125;-76
2023/09/30 08:08:25;;;;;;;7.70;4.03;;;;;;;20.48;55.71;93585.19;5110875;27;20434;-76
2023/09/30 08:10:55;;;;;;;15.40;4.38;;;;;;;20.56;57.03;93582.84;5108913;28;20058;-76
2023/09/30 08:13:22;;;;;;;8.57;4.55;;;;;;;20.78;54.72;93586.22;5109967;28;20050;-76
2023/09/30 08:15:51;;;;;;;12.63;5.35;;;;;;;20.95;50.62;93588.56;5111488;27;20047;-75
2023/09/30 08:18:18;;;;;;;8.80;5.15;;;;;;;20.98;51.66;93595.06;5110925;28;20678;-76
2023/09/30 08:20:46;;;;;;;8.35;5.03;;;;;;;20.89;50.22;93603.47;5114791;27;20048;-76
2023/09/30 08:23:13;;;;;;;10.35;5.10;;;;;;;21.04;50.04;93583.56;5113853;27;20047;-76
2023/09/30 08:25:39;;;;;;;6.05;4.38;;;;;;;21.03;48.89;93588.03;5113659;27;20054;-76
2023/09/30 08:28:06;;;;;;;9.52;5.30;;;;;;;21.27;50.60;93586.63;5116016;27;20484;-76
2023/09/30 08:30:34;;;;;;;10.70;6.47;;;;;;;21.40;46.04;93595.72;5112907;27;20046;-76
2023/09/30 08:33:04;;;;;;;10.13;6.38;;;;;;;21.38;44.85;93592.59;5113327;27;20054;-76
2023/09/30 08:35:31;;;;;;;9.73;6.47;;;;;;;21.50;47.03;93572.16;5112563;27;20047;-75
2023/09/30 08:37:59;;;;;;;10.02;5.85;;;;;;;21.56;44.86;93580.78;5112234;27;20547;-76
2023/09/30 08:40:26;;;;;;;8.45;5.63;;;;;;;21.50;43.96;93600.91;5114151;27;20046;-76
2023/09/30 08:42:53;;;;;;;8.00;5.57;;;;;;;21.42;44.11;93591.03;5113243;27;20055;-76
2023/09/30 08:45:20;;;;;;;7.68;5.40;;;;;;;21.47;45.64;93581.31;5112871;27;20411;-76
2023/09/30 08:47:47;;;;;;;8.95;5.63;;;;;;;21.46;44.59;93587.59;5113245;27;20491;-76
2023/09/30 08:50:18;;;;;;;8.70;5.82;;;;;;;21.25;42.89;93565.22;5116637;27;20048;-76
2023/09/30 08:52:46;;;;;;;7.82;5.78;;;;;;;21.58;43.77;93591.72;5112114;27;20046;-76
2023/09/30 08:55:13;;;;;;;10.30;5.80;;;;;;;21.73;42.82;93596.91;5114445;27;20137;-76
2023/09/30 08:57:42;;;;;;;8.60;5.55;;;;;;;21.73;42.95;93588.28;5113521;27;20054;-75
2023/09/30 09:00:12;;;;;;;11.77;6.57;;;;;;;21.82;43.02;93594.50;5115669;27;20502;-76
2023/09/30 09:02:39;;;;;;;10.52;6.25;;;;;;;21.91;42.59;93593.91;5112067;27;20047;-76
2023/09/30 09:05:07;;;;;;;7.30;5.65;;;;;;;21.80;42.99;93582.75;5112207;27;20143;-75
2023/09/30 09:07:35;;;;;;;9.90;5.85;;;;;;;21.82;42.28;93591.91;5111572;27;20519;-76
2023/09/30 09:10:07;;;;;;;9.32;6.10;;;;;;;21.91;40.90;93584.25;5115744;27;20043;-76
2023/09/30 09:12:35;;;;;;;9.00;6.28;;;;;;;22.02;41.43;93579.72;5112365;27;20054;-76
2023/09/30 09:15:02;;;;;;;9.70;6.45;;;;;;;21.83;41.02;93575.16;5110475;27;20047;-75
2023/09/30 09:17:42;;;;;;;7.93;6.40;;;;;;;21.92;42.33;93585.81;5111710;27;20151;-75
2023/09/30 09:20:10;;;;;;;11.15;5.90;;;;;;;22.06;41.64;93593.81;5118593;27;20559;-75
2023/09/30 09:22:43;;;;;;;9.63;5.80;;;;;;;21.90;42.00;93587.94;5122455;27;20100;-75
2023/09/30 09:25:11;;;;;;;10.15;5.57;;;;;;;22.01;41.23;93581.56;5120821;27;20043;-74
2023/09/30 09:27:38;;;;;;;10.55;6.00;;;;;;;22.02;42.11;93582.34;5125382;27;20078;-74
2023/09/30 09:30:22;;;;;;;8.95;5.50;;;;;;;22.20;41.47;93577.50;5117070;27;20051;-76
2023/09/30 09:32:57;;;;;;;7.13;5.63;;;;;;;22.38;40.84;93570.81;5110773;27;20463;-76
2023/09/30 09:35:25;;;;;;;10.20;5.63;;;;;;;22.40;42.11;93553.03;5116453;27;20048;-76
2023/09/30 09:38:01;;;;;;;8.35;5.13;;;;;;;22.63;41.98;93582.94;5124797;27;20051;-75
2023/09/30 09:40:29;;;;;;;12.93;5.63;;;;;;;22.64;42.02;93586.34;5119768;27;20851;-75
2023/09/30 09:42:56;;;;;;;9.82;5.65;;;;;;;22.88;41.66;93575.91;5115689;27;20052;-76
2023/09/30 09:45:24;;;;;;;6.88;4.53;;;;;;;22.97;41.03;93573.44;5113788;27;20051;-76
2023/09/30 09:47:52;;;;;;;7.15;4.63;;;;;;;22.78;40.93;93574.16;5111033;27;20844;-76
2023/09/30 09:50:21;;;;;;;8.98;4.95;;;;;;;22.66;40.50;93569.31;5118515;27;20547;-76
2023/09/30 09:52:51;;;;;;;5.78;4.70;;;;;;;23.01;40.81;93563.97;5111032;27;20083;-76
2023/09/30 09:55:21;;;;;;;8.65;4.90;;;;;;;22.83;40.70;93565.47;5120234;27;20054;-77
2023/09/30 09:57:49;;;;;;;9.40;4.60;;;;;;;23.03;41.66;93568.94;5110346;27;20047;-76
2023/09/30 10:00:18;;;;;;;7.95;4.32;;;;;;;23.14;40.55;93559.13;5112028;27;20047;-76
2023/09/30 10:02:45;;;;;;;8.02;4.60;;;;;;;23.38;40.46;93567.00;5110628;27;20079;-76
2023/09/30 10:05:13;;;;;;;8.18;4.47;;;;;;;23.30;40.50;93562.34;5111089;27;20525;-76
2023/09/30 10:07:45;;;;;;;9.93;4.43;;;;;;;23.37;40.02;93554.94;5112564;27;20058;-76
2023/09/30 10:10:16;;;;;;;7.03;4.43;;;;;;;23.54;40.52;93562.31;5111848;27;20051;-76
2023/09/30 10:12:45;;;;;;;8.65;4.70;;;;;;;23.60;39.19;93553.31;5113331;27;20050;-76
2023/09/30 10:15:39;;;;;;;25.75;4.40;;;;;;;23.83;39.24;93550.91;5111877;27;20522;-76
2023/09/30 10:18:07;;;;;;;9.73;3.80;;;;;;;23.68;39.94;93544.03;5113784;27;20541;-76
2023/09/30 10:20:35;;;;;;;6.43;3.80;;;;;;;23.32;39.73;93544.50;5110345;27;20055;-76
2023/09/30 10:23:25;;;;;;;7.07;5.03;;;;;;;23.56;39.88;93546.31;5111618;27;20067;-77
2023/09/30 10:25:57;;;;;;;7.45;3.58;;;;;;;22.90;40.49;93510.91;5110852;27;20096;-76
2023/09/30 10:28:35;;;;;;;6.38;4.38;;;;;;;23.06;40.88;93519.38;5111966;27;20050;-76
2023/09/30 10:31:13;;;;;;;5.97;3.63;;;;;;;23.28;40.16;93539.03;5111808;27;20043;-75
2023/09/30 10:34:23;;;;;;;5.57;3.70;;;;;;;23.36;40.93;93540.25;5111814;27;20063;-75
2023/09/30 10:36:52;;;;;;;7.47;4.43;;;;;;;23.31;39.68;93532.44;5052964;28;20052;-75
2023/09/30 10:39:52;;;;;;;4.22;3.40;;;;;;;23.26;40.05;93533.28;5048412;28;20052;-75
2023/09/30 10:42:47;;;;;;;6.97;3.28;;;;;;;23.38;39.23;93525.06;5098428;27;20058;-76
2023/09/30 10:45:48;;;;;;;4.90;3.30;;;;;;;23.32;40.65;93523.53;5116857;27;20498;-77
2023/09/30 10:48:37;;;;;;;5.65;3.10;;;;;;;23.42;39.50;93517.41;5112933;27;20039;-76
2023/09/30 10:51:15;;;;;;;5.88;3.17;;;;;;;23.72;39.30;93521.44;5108873;27;20569;-76
2023/09/30 10:53:45;;;;;;;6.03;3.00;;;;;;;23.79;38.86;93507.94;5117973;27;20054;-75
2023/09/30 10:56:12;;;;;;;9.18;2.85;;;;;;;23.68;39.10;93504.72;5116061;27;20056;-75
2023/09/30 10:58:46;;;;;;;6.38;3.10;;;;;;;23.68;38.59;93496.06;5109876;27;20052;-76
2023/09/30 11:01:16;;;;;;;5.20;3.08;;;;;;;23.83;38.36;93487.19;5109561;27;20054;-76
2023/09/30 11:03:43;;;;;;;5.13;3.20;;;;;;;23.62;37.65;93506.63;5108665;27;20510;-75
2023/09/30 11:06:17;;;;;;;3.95;2.30;;;;;;;23.52;37.62;93508.63;5111758;27;20046;-76
2023/09/30 11:08:47;;;;;;;13.25;7.32;;;;;;;23.63;38.60;93494.28;5112053;27;20048;-75
2023/09/30 11:11:15;;;;;;;5.47;2.40;;;;;;;23.66;37.13;93501.59;5118881;27;20112;-76
2023/09/30 11:13:42;;;;;;;9.88;2.72;;;;;;;23.61;37.22;93506.91;5115721;27;20055;-76
2023/09/30 11:16:09;;;;;;;6.75;2.35;;;;;;;23.67;36.71;93505.78;5126439;27;20498;-75
2023/09/30 11:18:38;;;;;;;6.25;2.80;;;;;;;23.37;37.74;93499.13;5121153;27;20144;-75
2023/09/30 11:21:10;;;;;;;5.07;2.83;;;;;;;23.72;37.36;93491.81;5108267;27;20126;-76
2023/09/30 11:23:38;;;;;;;3.55;2.35;;;;;;;24.05;37.30;93486.56;5121265;27;20411;-75
2023/09/30 11:26:06;;;;;;;4.22;2.45;;;;;;;24.02;35.67;93495.78;5111932;27;20043;-76
2023/09/30 11:28:43;;;;;;;5.20;2.63;;;;;;;23.86;36.04;93497.09;5121034;27;20116;-75
2023/09/30 11:31:13;;;;;;;5.22;2.25;;;;;;;23.84;36.77;93494.00;5111539;27;20044;-76
2023/09/30 11:33:52;;;;;;;6.20;2.72;;;;;;;23.68;36.22;93473.25;5116255;28;20778;-76